sensor_id;sensor_type;location;lat;lon;timestamp;P1;durP1;ratioP1;P2;durP2;ratioP2
13349;SDS011;6744;53.190;6.576;2022-12-29T00:01:44;3.00;;;2.70;;
13349;SDS011;6744;53.190;6.576;2022-12-29T00:04:10;3.20;;;2.90;;
13349;SDS011;6744;53.190;6.576;2022-12-29T00:06:37;3.40;;;3.10;;
13349;SDS011;6744;53.190;6.576;2022-12-29T00:09:03;2.80;;;2.60;;
13349;SDS011;6744;53.190;6.576;2022-12-29T00:11:28;3.37;;;3.17;;
13349;SDS011;6744;53.190;6.576;2022-12-29T00:13:54;2.87;;;2.63;;
13349;SDS011;6744;53.190;6.576;2022-12-29T00:16:40;3.00;;;2.80;;
13349;SDS011;6744;53.190;6.576;2022-12-29T00:19:07;3.10;;;2.80;;
13349;SDS011;6744;53.190;6.576;2022-12-29T00:21:52;3.23;;;2.90;;
13349;SDS011;6744;53.190;6.576;2022-12-29T00:24:36;2.40;;;2.30;;
13349;SDS011;6744;53.190;6.576;2022-12-29T00:27:20;3.10;;;2.90;;
13349;SDS011;6744;53.190;6.576;2022-12-29T00:30:08;2.80;;;2.60;;
13349;SDS011;6744;53.190;6.576;2022-12-29T00:32:54;3.00;;;2.80;;
13349;SDS011;6744;53.190;6.576;2022-12-29T00:35:38;3.03;;;2.83;;
13349;SDS011;6744;53.190;6.576;2022-12-29T00:38:05;3.07;;;2.87;;
13349;SDS011;6744;53.190;6.576;2022-12-29T00:40:58;3.70;;;2.93;;
13349;SDS011;6744;53.190;6.576;2022-12-29T00:43:41;3.10;;;2.90;;
13349;SDS011;6744;53.190;6.576;2022-12-29T00:46:25;3.63;;;2.87;;
13349;SDS011;6744;53.190;6.576;2022-12-29T00:48:51;3.10;;;2.90;;
13349;SDS011;6744;53.190;6.576;2022-12-29T00:51:35;3.57;;;3.27;;
13349;SDS011;6744;53.190;6.576;2022-12-29T00:54:00;2.80;;;2.60;;
13349;SDS011;6744;53.190;6.576;2022-12-29T00:56:25;3.33;;;3.03;;
13349;SDS011;6744;53.190;6.576;2022-12-29T00:58:51;4.67;;;3.10;;
13349;SDS011;6744;53.190;6.576;2022-12-29T01:01:16;3.43;;;3.23;;
13349;SDS011;6744;53.190;6.576;2022-12-29T01:03:41;4.17;;;2.70;;
13349;SDS011;6744;53.190;6.576;2022-12-29T01:06:07;2.50;;;2.30;;
13349;SDS011;6744;53.190;6.576;2022-12-29T01:08:34;2.70;;;2.50;;
13349;SDS011;6744;53.190;6.576;2022-12-29T01:11:01;3.10;;;2.90;;
13349;SDS011;6744;53.190;6.576;2022-12-29T01:13:27;3.13;;;2.83;;
13349;SDS011;6744;53.190;6.576;2022-12-29T01:15:53;2.87;;;2.67;;
13349;SDS011;6744;53.190;6.576;2022-12-29T01:18:18;2.93;;;2.73;;
13349;SDS011;6744;53.190;6.576;2022-12-29T01:20:44;2.70;;;2.50;;
13349;SDS011;6744;53.190;6.576;2022-12-29T01:23:09;3.10;;;2.90;;
13349;SDS011;6744;53.190;6.576;2022-12-29T01:25:35;2.47;;;2.30;;
13349;SDS011;6744;53.190;6.576;2022-12-29T01:28:00;2.90;;;2.60;;
13349;SDS011;6744;53.190;6.576;2022-12-29T01:30:25;2.83;;;2.60;;
13349;SDS011;6744;53.190;6.576;2022-12-29T01:32:51;3.20;;;2.90;;
13349;SDS011;6744;53.190;6.576;2022-12-29T01:35:16;4.23;;;2.93;;
13349;SDS011;6744;53.190;6.576;2022-12-29T01:37:41;2.90;;;2.70;;
13349;SDS011;6744;53.190;6.576;2022-12-29T01:40:07;2.93;;;2.73;;
13349;SDS011;6744;53.190;6.576;2022-12-29T01:42:32;2.87;;;2.60;;
13349;SDS011;6744;53.190;6.576;2022-12-29T01:45:00;3.17;;;2.87;;
13349;SDS011;6744;53.190;6.576;2022-12-29T01:49:59;3.53;;;2.70;;
13349;SDS011;6744;53.190;6.576;2022-12-29T01:52:28;3.20;;;3.00;;
13349;SDS011;6744;53.190;6.576;2022-12-29T01:54:55;3.47;;;3.17;;
13349;SDS011;6744;53.190;6.576;2022-12-29T01:57:21;3.27;;;3.07;;
13349;SDS011;6744;53.190;6.576;2022-12-29T01:59:54;3.23;;;2.80;;
13349;SDS011;6744;53.190;6.576;2022-12-29T02:02:23;2.70;;;2.50;;
13349;SDS011;6744;53.190;6.576;2022-12-29T02:04:48;3.20;;;3.00;;
13349;SDS011;6744;53.190;6.576;2022-12-29T02:07:18;3.40;;;3.10;;
13349;SDS011;6744;53.190;6.576;2022-12-29T02:09:48;3.20;;;2.90;;
13349;SDS011;6744;53.190;6.576;2022-12-29T02:12:14;3.80;;;2.93;;
13349;SDS011;6744;53.190;6.576;2022-12-29T02:14:39;2.80;;;2.60;;
13349;SDS011;6744;53.190;6.576;2022-12-29T02:17:28;3.83;;;3.17;;
13349;SDS011;6744;53.190;6.576;2022-12-29T02:23:23;3.23;;;2.90;;
13349;SDS011;6744;53.190;6.576;2022-12-29T02:31:17;2.10;;;2.00;;
13349;SDS011;6744;53.190;6.576;2022-12-29T02:37:06;2.03;;;1.93;;
13349;SDS011;6744;53.190;6.576;2022-12-29T02:42:42;3.83;;;2.33;;
13349;SDS011;6744;53.190;6.576;2022-12-29T02:50:25;2.13;;;2.03;;
13349;SDS011;6744;53.190;6.576;2022-12-29T02:52:54;2.47;;;2.20;;
13349;SDS011;6744;53.190;6.576;2022-12-29T02:55:23;2.17;;;1.97;;
13349;SDS011;6744;53.190;6.576;2022-12-29T02:57:48;2.40;;;2.20;;
13349;SDS011;6744;53.190;6.576;2022-12-29T03:00:14;2.43;;;2.00;;
13349;SDS011;6744;53.190;6.576;2022-12-29T03:02:58;1.90;;;1.70;;
13349;SDS011;6744;53.190;6.576;2022-12-29T03:11:08;1.93;;;1.83;;
13349;SDS011;6744;53.190;6.576;2022-12-29T03:14:43;2.00;;;1.40;;
13349;SDS011;6744;53.190;6.576;2022-12-29T03:17:24;1.57;;;1.40;;
13349;SDS011;6744;53.190;6.576;2022-12-29T03:19:52;2.33;;;1.63;;
13349;SDS011;6744;53.190;6.576;2022-12-29T03:22:27;2.13;;;1.47;;
13349;SDS011;6744;53.190;6.576;2022-12-29T03:24:58;1.20;;;1.10;;
13349;SDS011;6744;53.190;6.576;2022-12-29T03:27:38;1.60;;;1.30;;
13349;SDS011;6744;53.190;6.576;2022-12-29T03:30:05;1.77;;;1.13;;
13349;SDS011;6744;53.190;6.576;2022-12-29T03:32:33;1.60;;;1.10;;
13349;SDS011;6744;53.190;6.576;2022-12-29T03:35:02;2.00;;;1.23;;
13349;SDS011;6744;53.190;6.576;2022-12-29T03:37:30;1.37;;;1.00;;
13349;SDS011;6744;53.190;6.576;2022-12-29T03:40:02;2.10;;;1.20;;
13349;SDS011;6744;53.190;6.576;2022-12-29T03:42:29;1.17;;;0.90;;
13349;SDS011;6744;53.190;6.576;2022-12-29T03:44:56;2.97;;;1.20;;
13349;SDS011;6744;53.190;6.576;2022-12-29T03:47:22;0.93;;;0.80;;
13349;SDS011;6744;53.190;6.576;2022-12-29T03:49:48;3.73;;;1.03;;
13349;SDS011;6744;53.190;6.576;2022-12-29T03:52:14;2.17;;;1.00;;
13349;SDS011;6744;53.190;6.576;2022-12-29T03:54:40;1.53;;;0.80;;
13349;SDS011;6744;53.190;6.576;2022-12-29T03:57:05;2.70;;;0.90;;
13349;SDS011;6744;53.190;6.576;2022-12-29T03:59:30;2.43;;;1.20;;
13349;SDS011;6744;53.190;6.576;2022-12-29T04:01:56;2.10;;;0.90;;
13349;SDS011;6744;53.190;6.576;2022-12-29T04:04:21;1.97;;;1.00;;
13349;SDS011;6744;53.190;6.576;2022-12-29T04:06:46;2.57;;;1.30;;
13349;SDS011;6744;53.190;6.576;2022-12-29T04:09:12;1.57;;;1.00;;
13349;SDS011;6744;53.190;6.576;2022-12-29T04:11:37;1.43;;;1.03;;
13349;SDS011;6744;53.190;6.576;2022-12-29T04:14:02;1.23;;;0.90;;
13349;SDS011;6744;53.190;6.576;2022-12-29T04:16:28;2.90;;;1.20;;
13349;SDS011;6744;53.190;6.576;2022-12-29T04:18:53;1.77;;;0.90;;
13349;SDS011;6744;53.190;6.576;2022-12-29T04:21:18;2.13;;;1.20;;
13349;SDS011;6744;53.190;6.576;2022-12-29T04:23:44;1.53;;;0.93;;
13349;SDS011;6744;53.190;6.576;2022-12-29T04:26:09;2.90;;;1.10;;
13349;SDS011;6744;53.190;6.576;2022-12-29T04:28:35;2.90;;;0.93;;
13349;SDS011;6744;53.190;6.576;2022-12-29T04:31:01;2.00;;;0.90;;
13349;SDS011;6744;53.190;6.576;2022-12-29T04:33:28;1.67;;;0.80;;
13349;SDS011;6744;53.190;6.576;2022-12-29T04:35:53;3.07;;;0.87;;
13349;SDS011;6744;53.190;6.576;2022-12-29T04:38:19;3.10;;;1.00;;
13349;SDS011;6744;53.190;6.576;2022-12-29T04:40:46;2.73;;;0.70;;
13349;SDS011;6744;53.190;6.576;2022-12-29T04:43:11;3.07;;;1.20;;
13349;SDS011;6744;53.190;6.576;2022-12-29T04:45:38;4.77;;;1.20;;
13349;SDS011;6744;53.190;6.576;2022-12-29T04:48:04;4.40;;;1.03;;
13349;SDS011;6744;53.190;6.576;2022-12-29T04:50:29;2.53;;;0.77;;
13349;SDS011;6744;53.190;6.576;2022-12-29T04:52:55;4.20;;;1.07;;
13349;SDS011;6744;53.190;6.576;2022-12-29T04:55:20;3.97;;;1.00;;
13349;SDS011;6744;53.190;6.576;2022-12-29T04:57:45;2.53;;;1.20;;
13349;SDS011;6744;53.190;6.576;2022-12-29T05:00:11;3.60;;;0.87;;
13349;SDS011;6744;53.190;6.576;2022-12-29T05:02:37;3.43;;;1.03;;
13349;SDS011;6744;53.190;6.576;2022-12-29T05:05:02;5.00;;;1.50;;
13349;SDS011;6744;53.190;6.576;2022-12-29T05:07:28;5.27;;;1.27;;
13349;SDS011;6744;53.190;6.576;2022-12-29T05:09:54;6.47;;;1.43;;
13349;SDS011;6744;53.190;6.576;2022-12-29T05:12:19;4.50;;;1.20;;
13349;SDS011;6744;53.190;6.576;2022-12-29T05:14:44;7.77;;;1.27;;
13349;SDS011;6744;53.190;6.576;2022-12-29T05:17:10;3.33;;;1.10;;
13349;SDS011;6744;53.190;6.576;2022-12-29T05:19:35;4.63;;;1.40;;
13349;SDS011;6744;53.190;6.576;2022-12-29T05:22:00;6.37;;;1.40;;
13349;SDS011;6744;53.190;6.576;2022-12-29T05:24:26;5.20;;;1.50;;
13349;SDS011;6744;53.190;6.576;2022-12-29T05:26:51;6.87;;;1.63;;
13349;SDS011;6744;53.190;6.576;2022-12-29T05:29:16;4.93;;;1.23;;
13349;SDS011;6744;53.190;6.576;2022-12-29T05:31:41;5.40;;;1.43;;
13349;SDS011;6744;53.190;6.576;2022-12-29T05:34:07;6.20;;;1.43;;
13349;SDS011;6744;53.190;6.576;2022-12-29T05:36:34;5.20;;;1.43;;
13349;SDS011;6744;53.190;6.576;2022-12-29T05:38:59;5.23;;;1.47;;
13349;SDS011;6744;53.190;6.576;2022-12-29T05:41:25;6.57;;;1.50;;
13349;SDS011;6744;53.190;6.576;2022-12-29T05:43:50;6.67;;;1.60;;
13349;SDS011;6744;53.190;6.576;2022-12-29T05:46:16;3.53;;;1.27;;
13349;SDS011;6744;53.190;6.576;2022-12-29T05:48:41;6.00;;;2.10;;
13349;SDS011;6744;53.190;6.576;2022-12-29T05:51:06;5.83;;;1.60;;
13349;SDS011;6744;53.190;6.576;2022-12-29T05:53:32;5.67;;;1.60;;
13349;SDS011;6744;53.190;6.576;2022-12-29T05:55:57;5.57;;;1.70;;
13349;SDS011;6744;53.190;6.576;2022-12-29T05:58:23;4.30;;;1.17;;
13349;SDS011;6744;53.190;6.576;2022-12-29T06:00:48;5.67;;;1.57;;
13349;SDS011;6744;53.190;6.576;2022-12-29T06:03:13;4.97;;;1.20;;
13349;SDS011;6744;53.190;6.576;2022-12-29T06:05:39;6.00;;;1.40;;
13349;SDS011;6744;53.190;6.576;2022-12-29T06:08:04;5.50;;;1.50;;
13349;SDS011;6744;53.190;6.576;2022-12-29T06:10:29;6.63;;;1.30;;
13349;SDS011;6744;53.190;6.576;2022-12-29T06:12:55;5.80;;;1.50;;
13349;SDS011;6744;53.190;6.576;2022-12-29T06:15:20;5.50;;;1.50;;
13349;SDS011;6744;53.190;6.576;2022-12-29T06:17:45;7.20;;;1.80;;
13349;SDS011;6744;53.190;6.576;2022-12-29T06:20:11;4.13;;;1.33;;
13349;SDS011;6744;53.190;6.576;2022-12-29T06:22:36;6.97;;;1.60;;
13349;SDS011;6744;53.190;6.576;2022-12-29T06:25:02;5.40;;;1.50;;
13349;SDS011;6744;53.190;6.576;2022-12-29T06:27:27;6.67;;;1.47;;
13349;SDS011;6744;53.190;6.576;2022-12-29T06:29:53;6.23;;;1.70;;
13349;SDS011;6744;53.190;6.576;2022-12-29T06:32:18;7.43;;;1.50;;
13349;SDS011;6744;53.190;6.576;2022-12-29T06:34:44;7.30;;;1.60;;
13349;SDS011;6744;53.190;6.576;2022-12-29T06:37:09;6.90;;;1.63;;
13349;SDS011;6744;53.190;6.576;2022-12-29T06:39:35;8.20;;;2.13;;
13349;SDS011;6744;53.190;6.576;2022-12-29T06:42:00;10.60;;;1.53;;
13349;SDS011;6744;53.190;6.576;2022-12-29T06:44:26;9.27;;;2.00;;
13349;SDS011;6744;53.190;6.576;2022-12-29T06:46:51;8.23;;;1.60;;
13349;SDS011;6744;53.190;6.576;2022-12-29T06:49:16;9.20;;;1.80;;
13349;SDS011;6744;53.190;6.576;2022-12-29T06:51:42;8.13;;;1.70;;
13349;SDS011;6744;53.190;6.576;2022-12-29T06:54:07;6.63;;;1.77;;
13349;SDS011;6744;53.190;6.576;2022-12-29T06:56:33;6.70;;;1.93;;
13349;SDS011;6744;53.190;6.576;2022-12-29T06:58:58;9.73;;;2.20;;
13349;SDS011;6744;53.190;6.576;2022-12-29T07:01:25;7.20;;;2.07;;
13349;SDS011;6744;53.190;6.576;2022-12-29T07:03:51;9.03;;;1.80;;
13349;SDS011;6744;53.190;6.576;2022-12-29T07:06:16;7.73;;;2.00;;
13349;SDS011;6744;53.190;6.576;2022-12-29T07:08:42;8.47;;;1.93;;
13349;SDS011;6744;53.190;6.576;2022-12-29T07:11:07;7.93;;;2.00;;
13349;SDS011;6744;53.190;6.576;2022-12-29T07:13:33;11.07;;;2.40;;
13349;SDS011;6744;53.190;6.576;2022-12-29T07:15:59;8.63;;;2.00;;
13349;SDS011;6744;53.190;6.576;2022-12-29T07:18:24;10.20;;;2.27;;
13349;SDS011;6744;53.190;6.576;2022-12-29T07:20:49;8.27;;;2.00;;
13349;SDS011;6744;53.190;6.576;2022-12-29T07:23:15;9.60;;;1.90;;
13349;SDS011;6744;53.190;6.576;2022-12-29T07:25:40;9.50;;;2.03;;
13349;SDS011;6744;53.190;6.576;2022-12-29T07:28:06;6.70;;;1.90;;
13349;SDS011;6744;53.190;6.576;2022-12-29T07:30:32;8.10;;;1.57;;
13349;SDS011;6744;53.190;6.576;2022-12-29T07:32:57;7.30;;;1.80;;
13349;SDS011;6744;53.190;6.576;2022-12-29T07:35:23;8.73;;;2.07;;
13349;SDS011;6744;53.190;6.576;2022-12-29T07:37:48;8.30;;;1.77;;
13349;SDS011;6744;53.190;6.576;2022-12-29T07:40:14;11.53;;;2.23;;
13349;SDS011;6744;53.190;6.576;2022-12-29T07:42:39;9.03;;;1.80;;
13349;SDS011;6744;53.190;6.576;2022-12-29T07:45:05;6.87;;;2.00;;
13349;SDS011;6744;53.190;6.576;2022-12-29T07:47:30;8.27;;;2.00;;
13349;SDS011;6744;53.190;6.576;2022-12-29T07:49:56;9.23;;;1.90;;
13349;SDS011;6744;53.190;6.576;2022-12-29T07:52:21;8.60;;;1.80;;
13349;SDS011;6744;53.190;6.576;2022-12-29T07:54:46;9.33;;;2.10;;
13349;SDS011;6744;53.190;6.576;2022-12-29T07:57:12;9.23;;;2.27;;
13349;SDS011;6744;53.190;6.576;2022-12-29T07:59:37;8.57;;;2.27;;
13349;SDS011;6744;53.190;6.576;2022-12-29T08:02:02;10.43;;;2.70;;
13349;SDS011;6744;53.190;6.576;2022-12-29T08:04:28;10.70;;;2.20;;
13349;SDS011;6744;53.190;6.576;2022-12-29T08:06:53;6.37;;;1.90;;
13349;SDS011;6744;53.190;6.576;2022-12-29T08:09:19;10.27;;;2.00;;
13349;SDS011;6744;53.190;6.576;2022-12-29T08:11:44;5.03;;;1.77;;
13349;SDS011;6744;53.190;6.576;2022-12-29T08:14:09;9.37;;;1.80;;
13349;SDS011;6744;53.190;6.576;2022-12-29T08:16:35;7.33;;;1.97;;
13349;SDS011;6744;53.190;6.576;2022-12-29T08:19:00;9.00;;;2.03;;
13349;SDS011;6744;53.190;6.576;2022-12-29T08:21:26;6.87;;;2.10;;
13349;SDS011;6744;53.190;6.576;2022-12-29T08:23:52;9.60;;;2.00;;
13349;SDS011;6744;53.190;6.576;2022-12-29T08:26:18;8.87;;;2.10;;
13349;SDS011;6744;53.190;6.576;2022-12-29T08:28:43;9.00;;;2.03;;
13349;SDS011;6744;53.190;6.576;2022-12-29T08:31:08;7.57;;;2.20;;
13349;SDS011;6744;53.190;6.576;2022-12-29T08:33:34;10.87;;;2.40;;
13349;SDS011;6744;53.190;6.576;2022-12-29T08:36:00;9.23;;;2.27;;
13349;SDS011;6744;53.190;6.576;2022-12-29T08:38:28;11.03;;;2.50;;
13349;SDS011;6744;53.190;6.576;2022-12-29T08:40:55;7.87;;;2.30;;
13349;SDS011;6744;53.190;6.576;2022-12-29T08:43:21;11.60;;;2.40;;
13349;SDS011;6744;53.190;6.576;2022-12-29T08:45:46;10.73;;;2.67;;
13349;SDS011;6744;53.190;6.576;2022-12-29T08:48:11;10.17;;;2.40;;
13349;SDS011;6744;53.190;6.576;2022-12-29T08:50:37;10.87;;;2.20;;
13349;SDS011;6744;53.190;6.576;2022-12-29T08:53:02;11.10;;;2.83;;
13349;SDS011;6744;53.190;6.576;2022-12-29T08:55:27;13.47;;;2.53;;
13349;SDS011;6744;53.190;6.576;2022-12-29T08:57:53;13.43;;;2.77;;
13349;SDS011;6744;53.190;6.576;2022-12-29T09:00:18;12.77;;;2.63;;
13349;SDS011;6744;53.190;6.576;2022-12-29T09:02:45;9.90;;;2.63;;
13349;SDS011;6744;53.190;6.576;2022-12-29T09:05:10;11.57;;;3.00;;
13349;SDS011;6744;53.190;6.576;2022-12-29T09:07:35;17.53;;;3.23;;
13349;SDS011;6744;53.190;6.576;2022-12-29T09:10:01;11.50;;;2.73;;
13349;SDS011;6744;53.190;6.576;2022-12-29T09:12:26;8.97;;;2.33;;
13349;SDS011;6744;53.190;6.576;2022-12-29T09:14:52;12.10;;;2.70;;
13349;SDS011;6744;53.190;6.576;2022-12-29T09:17:17;10.57;;;2.63;;
13349;SDS011;6744;53.190;6.576;2022-12-29T09:20:01;12.27;;;3.30;;
13349;SDS011;6744;53.190;6.576;2022-12-29T09:22:27;10.20;;;2.40;;
13349;SDS011;6744;53.190;6.576;2022-12-29T09:24:52;10.97;;;3.10;;
13349;SDS011;6744;53.190;6.576;2022-12-29T09:27:18;10.73;;;2.50;;
13349;SDS011;6744;53.190;6.576;2022-12-29T09:29:43;11.43;;;2.73;;
13349;SDS011;6744;53.190;6.576;2022-12-29T09:32:08;14.13;;;2.67;;
13349;SDS011;6744;53.190;6.576;2022-12-29T09:34:34;10.50;;;2.77;;
13349;SDS011;6744;53.190;6.576;2022-12-29T09:36:59;14.20;;;3.17;;
13349;SDS011;6744;53.190;6.576;2022-12-29T09:39:24;10.07;;;2.23;;
13349;SDS011;6744;53.190;6.576;2022-12-29T09:42:24;10.47;;;2.00;;
13349;SDS011;6744;53.190;6.576;2022-12-29T09:47:35;13.40;;;2.77;;
13349;SDS011;6744;53.190;6.576;2022-12-29T09:52:54;9.10;;;2.20;;
13349;SDS011;6744;53.190;6.576;2022-12-29T09:55:21;9.97;;;2.30;;
13349;SDS011;6744;53.190;6.576;2022-12-29T10:00:22;8.33;;;2.03;;
13349;SDS011;6744;53.190;6.576;2022-12-29T10:02:52;9.00;;;2.17;;
13349;SDS011;6744;53.190;6.576;2022-12-29T10:05:29;11.67;;;2.17;;
13349;SDS011;6744;53.190;6.576;2022-12-29T10:08:13;9.20;;;2.00;;
13349;SDS011;6744;53.190;6.576;2022-12-29T10:10:53;9.10;;;1.77;;
13349;SDS011;6744;53.190;6.576;2022-12-29T10:24:07;7.37;;;1.97;;
13349;SDS011;6744;53.190;6.576;2022-12-29T10:26:38;7.57;;;1.80;;
13349;SDS011;6744;53.190;6.576;2022-12-29T10:29:06;7.23;;;2.00;;
13349;SDS011;6744;53.190;6.576;2022-12-29T10:31:48;8.50;;;2.03;;
13349;SDS011;6744;53.190;6.576;2022-12-29T10:34:19;7.87;;;2.13;;
13349;SDS011;6744;53.190;6.576;2022-12-29T10:36:48;7.67;;;2.00;;
13349;SDS011;6744;53.190;6.576;2022-12-29T10:41:57;11.90;;;2.50;;
13349;SDS011;6744;53.190;6.576;2022-12-29T10:44:24;8.00;;;1.97;;
13349;SDS011;6744;53.190;6.576;2022-12-29T10:46:59;8.40;;;1.57;;
13349;SDS011;6744;53.190;6.576;2022-12-29T10:49:26;5.93;;;1.77;;
13349;SDS011;6744;53.190;6.576;2022-12-29T10:51:52;8.57;;;2.07;;
13349;SDS011;6744;53.190;6.576;2022-12-29T10:54:27;8.10;;;1.70;;
13349;SDS011;6744;53.190;6.576;2022-12-29T10:59:41;10.90;;;2.37;;
13349;SDS011;6744;53.190;6.576;2022-12-29T11:04:39;8.63;;;2.50;;
13349;SDS011;6744;53.190;6.576;2022-12-29T11:07:11;9.10;;;2.27;;
13349;SDS011;6744;53.190;6.576;2022-12-29T11:09:38;13.30;;;2.70;;
13349;SDS011;6744;53.190;6.576;2022-12-29T11:12:20;12.67;;;2.80;;
13349;SDS011;6744;53.190;6.576;2022-12-29T11:14:47;9.33;;;2.43;;
13349;SDS011;6744;53.190;6.576;2022-12-29T11:17:26;10.17;;;2.27;;
13349;SDS011;6744;53.190;6.576;2022-12-29T11:19:51;10.73;;;2.73;;
13349;SDS011;6744;53.190;6.576;2022-12-29T11:22:25;13.23;;;2.70;;
13349;SDS011;6744;53.190;6.576;2022-12-29T11:24:53;14.10;;;3.57;;
13349;SDS011;6744;53.190;6.576;2022-12-29T11:27:21;17.53;;;3.47;;
13349;SDS011;6744;53.190;6.576;2022-12-29T11:29:48;16.13;;;3.83;;
13349;SDS011;6744;53.190;6.576;2022-12-29T11:34:47;12.87;;;2.90;;
13349;SDS011;6744;53.190;6.576;2022-12-29T11:39:53;12.33;;;3.07;;
13349;SDS011;6744;53.190;6.576;2022-12-29T11:42:47;10.07;;;3.03;;
13349;SDS011;6744;53.190;6.576;2022-12-29T11:45:20;15.37;;;3.33;;
13349;SDS011;6744;53.190;6.576;2022-12-29T11:47:52;12.23;;;3.33;;
13349;SDS011;6744;53.190;6.576;2022-12-29T11:50:29;14.40;;;3.00;;
13349;SDS011;6744;53.190;6.576;2022-12-29T11:53:07;11.73;;;3.20;;
13349;SDS011;6744;53.190;6.576;2022-12-29T11:56:04;16.07;;;3.20;;
13349;SDS011;6744;53.190;6.576;2022-12-29T11:58:30;14.57;;;3.27;;
13349;SDS011;6744;53.190;6.576;2022-12-29T12:00:59;12.00;;;2.70;;
13349;SDS011;6744;53.190;6.576;2022-12-29T12:03:27;15.93;;;3.73;;
13349;SDS011;6744;53.190;6.576;2022-12-29T12:05:54;13.97;;;3.80;;
13349;SDS011;6744;53.190;6.576;2022-12-29T12:08:35;15.67;;;3.30;;
13349;SDS011;6744;53.190;6.576;2022-12-29T12:22:01;11.73;;;3.10;;
13349;SDS011;6744;53.190;6.576;2022-12-29T12:24:41;12.67;;;2.97;;
13349;SDS011;6744;53.190;6.576;2022-12-29T12:27:29;12.47;;;4.07;;
13349;SDS011;6744;53.190;6.576;2022-12-29T12:30:14;15.80;;;3.47;;
13349;SDS011;6744;53.190;6.576;2022-12-29T12:32:58;13.93;;;2.77;;
13349;SDS011;6744;53.190;6.576;2022-12-29T12:40:51;10.37;;;2.43;;
13349;SDS011;6744;53.190;6.576;2022-12-29T12:54:42;10.73;;;2.87;;
13349;SDS011;6744;53.190;6.576;2022-12-29T13:00:16;11.73;;;2.53;;
13349;SDS011;6744;53.190;6.576;2022-12-29T13:08:26;9.03;;;2.03;;
13349;SDS011;6744;53.190;6.576;2022-12-29T13:22:19;9.10;;;1.67;;
13349;SDS011;6744;53.190;6.576;2022-12-29T13:27:35;6.20;;;1.60;;
13349;SDS011;6744;53.190;6.576;2022-12-29T13:30:17;8.37;;;2.07;;
13349;SDS011;6744;53.190;6.576;2022-12-29T13:38:39;7.73;;;1.87;;
13349;SDS011;6744;53.190;6.576;2022-12-29T13:41:11;7.23;;;2.03;;
13349;SDS011;6744;53.190;6.576;2022-12-29T13:43:39;7.33;;;1.67;;
13349;SDS011;6744;53.190;6.576;2022-12-29T13:46:10;7.80;;;2.03;;
13349;SDS011;6744;53.190;6.576;2022-12-29T13:48:49;5.33;;;1.43;;
13349;SDS011;6744;53.190;6.576;2022-12-29T13:51:17;7.10;;;1.83;;
13349;SDS011;6744;53.190;6.576;2022-12-29T13:56:24;9.83;;;2.00;;
13349;SDS011;6744;53.190;6.576;2022-12-29T13:58:57;8.13;;;2.17;;
13349;SDS011;6744;53.190;6.576;2022-12-29T14:01:52;5.93;;;1.97;;
13349;SDS011;6744;53.190;6.576;2022-12-29T14:04:23;4.97;;;1.30;;
13349;SDS011;6744;53.190;6.576;2022-12-29T14:07:11;6.93;;;1.83;;
13349;SDS011;6744;53.190;6.576;2022-12-29T14:14:48;8.23;;;1.97;;
13349;SDS011;6744;53.190;6.576;2022-12-29T14:17:16;7.03;;;1.67;;
13349;SDS011;6744;53.190;6.576;2022-12-29T14:19:45;7.00;;;1.57;;
13349;SDS011;6744;53.190;6.576;2022-12-29T14:22:11;6.27;;;1.87;;
13349;SDS011;6744;53.190;6.576;2022-12-29T14:24:41;7.40;;;1.90;;
13349;SDS011;6744;53.190;6.576;2022-12-29T14:34:45;7.97;;;1.67;;
13349;SDS011;6744;53.190;6.576;2022-12-29T14:37:29;7.70;;;1.53;;
13349;SDS011;6744;53.190;6.576;2022-12-29T14:42:31;8.07;;;2.07;;
13349;SDS011;6744;53.190;6.576;2022-12-29T14:45:07;7.30;;;1.90;;
13349;SDS011;6744;53.190;6.576;2022-12-29T14:47:48;10.70;;;2.20;;
13349;SDS011;6744;53.190;6.576;2022-12-29T14:50:16;10.87;;;2.20;;
13349;SDS011;6744;53.190;6.576;2022-12-29T14:52:46;10.73;;;2.67;;
13349;SDS011;6744;53.190;6.576;2022-12-29T14:57:48;10.90;;;2.30;;
13349;SDS011;6744;53.190;6.576;2022-12-29T15:00:18;9.40;;;2.43;;
13349;SDS011;6744;53.190;6.576;2022-12-29T15:02:48;8.50;;;2.33;;
13349;SDS011;6744;53.190;6.576;2022-12-29T15:05:30;13.30;;;2.63;;
13349;SDS011;6744;53.190;6.576;2022-12-29T15:07:58;9.60;;;2.13;;
13349;SDS011;6744;53.190;6.576;2022-12-29T15:10:24;9.17;;;1.97;;
13349;SDS011;6744;53.190;6.576;2022-12-29T15:12:52;8.00;;;2.33;;
13349;SDS011;6744;53.190;6.576;2022-12-29T15:15:23;7.83;;;2.00;;
13349;SDS011;6744;53.190;6.576;2022-12-29T15:17:50;9.40;;;2.30;;
13349;SDS011;6744;53.190;6.576;2022-12-29T15:22:50;8.17;;;2.50;;
13349;SDS011;6744;53.190;6.576;2022-12-29T15:25:18;7.27;;;1.90;;
13349;SDS011;6744;53.190;6.576;2022-12-29T15:27:54;8.30;;;2.00;;
13349;SDS011;6744;53.190;6.576;2022-12-29T15:30:22;10.07;;;2.10;;
13349;SDS011;6744;53.190;6.576;2022-12-29T15:32:48;9.63;;;2.17;;
13349;SDS011;6744;53.190;6.576;2022-12-29T15:38:22;10.23;;;2.23;;
13349;SDS011;6744;53.190;6.576;2022-12-29T15:41:00;6.33;;;1.93;;
13349;SDS011;6744;53.190;6.576;2022-12-29T15:46:06;9.17;;;2.03;;
13349;SDS011;6744;53.190;6.576;2022-12-29T15:48:32;11.77;;;2.00;;
13349;SDS011;6744;53.190;6.576;2022-12-29T15:50:57;8.93;;;1.97;;
13349;SDS011;6744;53.190;6.576;2022-12-29T15:53:26;12.33;;;2.30;;
13349;SDS011;6744;53.190;6.576;2022-12-29T15:55:59;4.90;;;1.80;;
13349;SDS011;6744;53.190;6.576;2022-12-29T15:58:27;8.53;;;2.00;;
13349;SDS011;6744;53.190;6.576;2022-12-29T16:00:55;7.23;;;2.00;;
13349;SDS011;6744;53.190;6.576;2022-12-29T16:03:23;8.13;;;1.97;;
13349;SDS011;6744;53.190;6.576;2022-12-29T16:05:52;7.00;;;1.70;;
13349;SDS011;6744;53.190;6.576;2022-12-29T16:08:24;9.13;;;2.03;;
13349;SDS011;6744;53.190;6.576;2022-12-29T16:10:56;7.60;;;1.80;;
13349;SDS011;6744;53.190;6.576;2022-12-29T16:16:02;9.37;;;2.60;;
13349;SDS011;6744;53.190;6.576;2022-12-29T16:18:35;7.87;;;1.80;;
13349;SDS011;6744;53.190;6.576;2022-12-29T16:21:02;7.70;;;1.90;;
13349;SDS011;6744;53.190;6.576;2022-12-29T16:23:29;8.27;;;2.37;;
13349;SDS011;6744;53.190;6.576;2022-12-29T16:25:55;9.47;;;2.70;;
13349;SDS011;6744;53.190;6.576;2022-12-29T16:28:23;9.93;;;3.00;;
13349;SDS011;6744;53.190;6.576;2022-12-29T16:31:05;7.13;;;2.23;;
13349;SDS011;6744;53.190;6.576;2022-12-29T16:33:52;6.10;;;1.57;;
13349;SDS011;6744;53.190;6.576;2022-12-29T16:36:23;4.67;;;1.10;;
13349;SDS011;6744;53.190;6.576;2022-12-29T16:41:47;2.60;;;1.10;;
13349;SDS011;6744;53.190;6.576;2022-12-29T16:44:20;3.17;;;1.13;;
13349;SDS011;6744;53.190;6.576;2022-12-29T16:49:24;4.33;;;1.37;;
13349;SDS011;6744;53.190;6.576;2022-12-29T16:51:49;3.93;;;1.00;;
13349;SDS011;6744;53.190;6.576;2022-12-29T16:54:19;2.53;;;0.83;;
13349;SDS011;6744;53.190;6.576;2022-12-29T16:56:49;2.33;;;0.60;;
13349;SDS011;6744;53.190;6.576;2022-12-29T17:02:00;2.00;;;0.80;;
13349;SDS011;6744;53.190;6.576;2022-12-29T17:04:30;2.60;;;1.00;;
13349;SDS011;6744;53.190;6.576;2022-12-29T17:06:55;2.67;;;0.83;;
13349;SDS011;6744;53.190;6.576;2022-12-29T17:09:24;3.87;;;1.10;;
13349;SDS011;6744;53.190;6.576;2022-12-29T17:11:51;2.27;;;1.10;;
13349;SDS011;6744;53.190;6.576;2022-12-29T17:17:32;5.07;;;1.40;;
13349;SDS011;6744;53.190;6.576;2022-12-29T17:20:14;4.03;;;1.17;;
13349;SDS011;6744;53.190;6.576;2022-12-29T17:22:44;4.80;;;1.37;;
13349;SDS011;6744;53.190;6.576;2022-12-29T17:25:13;6.80;;;1.70;;
13349;SDS011;6744;53.190;6.576;2022-12-29T17:27:43;3.40;;;1.10;;
13349;SDS011;6744;53.190;6.576;2022-12-29T17:30:18;8.27;;;1.90;;
13349;SDS011;6744;53.190;6.576;2022-12-29T17:32:46;6.03;;;1.87;;
13349;SDS011;6744;53.190;6.576;2022-12-29T17:35:14;9.27;;;2.10;;
13349;SDS011;6744;53.190;6.576;2022-12-29T17:37:41;9.67;;;2.50;;
13349;SDS011;6744;53.190;6.576;2022-12-29T17:40:48;8.60;;;4.03;;
13349;SDS011;6744;53.190;6.576;2022-12-29T17:43:14;12.73;;;5.03;;
13349;SDS011;6744;53.190;6.576;2022-12-29T17:45:40;11.47;;;2.73;;
13349;SDS011;6744;53.190;6.576;2022-12-29T17:48:12;8.27;;;1.90;;
13349;SDS011;6744;53.190;6.576;2022-12-29T17:50:39;8.80;;;2.17;;